Time;durP1;ratioP1;P1;durP2;ratioP2;P2;SDS_P1;SDS_P2;PMS_P1;PMS_P2;Temp;Humidity;BMP_temperature;BMP_pressure;BME280_temperature;BME280_humidity;BME280_pressure;Samples;Min_cycle;Max_cycle;Signal;HPM_P1;HPM_P2
2022/06/02 00:01:15;;;;;;;8.55;7.18;;;;;;;10.97;73.58;99005.59;5007488;28;20028;-77
2022/06/02 00:03:54;;;;;;;9.27;7.47;;;;;;;10.92;73.01;99008.22;5005239;28;20030;-77
2022/06/02 00:06:46;;;;;;;12.45;7.78;;;;;;;10.76;73.56;98990.38;5005263;28;20087;-77
2022/06/02 00:09:46;;;;;;;8.30;7.50;;;;;;;10.76;73.55;98995.72;5006325;28;20515;-76
2022/06/02 00:12:24;;;;;;;8.13;7.38;;;;;;;10.66;73.98;98990.25;5003848;28;20505;-77
2022/06/02 00:15:16;;;;;;;7.57;6.78;;;;;;;10.75;73.42;99008.25;5004620;28;20033;-77
2022/06/02 00:18:03;;;;;;;9.27;6.15;;;;;;;10.72;73.47;99002.59;5003085;28;20026;-77
2022/06/02 00:20:40;;;;;;;19.60;7.43;;;;;;;10.62;73.96;98997.91;5006623;28;20433;-76
2022/06/02 00:23:30;;;;;;;7.28;6.68;;;;;;;10.68;73.90;99017.50;5008924;28;20068;-76
2022/06/02 00:26:33;;;;;;;8.27;6.47;;;;;;;10.65;73.59;99012.63;5008835;28;20092;-76
2022/06/02 00:29:43;;;;;;;9.07;6.72;;;;;;;10.63;73.59;99014.75;5003672;28;20021;-77
2022/06/02 00:32:15;;;;;;;6.65;6.05;;;;;;;10.62;73.82;99024.59;5008345;28;20489;-76
2022/06/02 00:34:48;;;;;;;6.82;6.13;;;;;;;10.60;73.84;99025.91;5006533;28;20042;-76
2022/06/02 00:37:31;;;;;;;7.05;6.40;;;;;;;10.54;74.46;99025.03;5006115;28;20113;-77
2022/06/02 00:39:58;;;;;;;7.35;6.65;;;;;;;10.47;74.08;99022.53;5005066;28;20511;-76
2022/06/02 00:42:24;;;;;;;7.78;6.53;;;;;;;10.57;74.30;99021.06;5009163;28;20316;-77
2022/06/02 00:44:56;;;;;;;8.25;6.75;;;;;;;10.54;73.85;99030.38;5004910;28;20038;-76
2022/06/02 00:47:53;;;;;;;7.88;7.07;;;;;;;10.40;73.96;99034.38;5009771;28;20056;-77
2022/06/02 00:50:43;;;;;;;7.63;6.65;;;;;;;10.40;75.05;99035.22;5013663;28;20355;-77
2022/06/02 00:57:30;;;;;;;7.35;6.68;;;;;;;10.51;73.94;99039.66;5009222;28;20039;-77
2022/06/02 01:00:06;;;;;;;8.13;7.00;;;;;;;10.43;73.98;99040.06;5012525;28;20044;-76
2022/06/02 01:02:42;;;;;;;7.80;7.03;;;;;;;10.48;74.46;99039.34;5011435;28;20080;-77
2022/06/02 01:05:07;;;;;;;8.43;7.47;;;;;;;10.37;74.44;99032.22;5011485;28;20401;-76
2022/06/02 01:07:45;;;;;;;7.93;7.22;;;;;;;10.24;74.70;99021.88;5009424;28;20037;-77
2022/06/02 01:10:36;;;;;;;8.20;6.82;;;;;;;10.35;74.72;99040.44;5026071;28;20053;-77
2022/06/02 01:13:11;;;;;;;8.45;7.65;;;;;;;10.34;74.14;99035.38;5008930;28;20041;-77
2022/06/02 01:16:02;;;;;;;9.05;8.15;;;;;;;10.22;74.60;99029.31;5007408;28;20188;-76
2022/06/02 01:18:46;;;;;;;9.60;8.60;;;;;;;10.12;75.21;99048.59;5007714;28;20595;-76
2022/06/02 01:21:27;;;;;;;9.20;8.18;;;;;;;9.99;75.56;99046.22;5009176;28;20125;-77
2022/06/02 01:24:10;;;;;;;10.20;8.52;;;;;;;10.14;74.87;99046.50;5009095;28;20034;-77
2022/06/02 01:26:53;;;;;;;11.32;9.57;;;;;;;10.17;75.02;99055.88;5009455;28;20033;-76
2022/06/02 01:29:52;;;;;;;9.65;8.65;;;;;;;10.30;75.13;99063.59;5007921;28;20037;-76
2022/06/02 01:32:26;;;;;;;10.07;7.95;;;;;;;10.09;75.32;99059.72;5008316;28;20053;-76
2022/06/02 01:35:19;;;;;;;12.75;10.25;;;;;;;9.66;76.14;99064.78;5005819;28;20482;-78
2022/06/02 01:38:08;;;;;;;12.48;9.07;;;;;;;9.37;77.10;99069.25;5005663;28;20111;-77
2022/06/02 01:40:44;;;;;;;13.25;10.68;;;;;;;8.79;80.25;99066.66;5010300;28;20033;-77
2022/06/02 01:43:18;;;;;;;14.23;11.27;;;;;;;8.27;81.57;99088.78;5008274;28;20030;-76
2022/06/02 01:46:11;;;;;;;14.70;11.73;;;;;;;8.71;80.05;99088.31;5004380;28;20046;-76
2022/06/02 01:48:59;;;;;;;12.95;10.57;;;;;;;9.08;78.26;99091.53;5008546;28;20029;-76
2022/06/02 01:51:43;;;;;;;10.07;9.02;;;;;;;10.03;76.01;99087.34;5020325;28;20030;-77
2022/06/02 01:54:36;;;;;;;10.38;9.32;;;;;;;9.80;75.94;99085.59;5009137;28;20053;-76
2022/06/02 01:57:26;;;;;;;11.45;9.90;;;;;;;10.26;75.16;99081.13;5007226;28;20030;-76
2022/06/02 02:00:19;;;;;;;10.52;9.43;;;;;;;9.96;75.32;99084.00;5009020;28;20030;-76
2022/06/02 02:03:28;;;;;;;9.75;8.75;;;;;;;10.31;74.42;99090.00;5006127;28;20116;-77
2022/06/02 02:06:38;;;;;;;11.20;8.35;;;;;;;10.37;73.78;99089.06;5003777;28;20161;-76
2022/06/02 02:09:53;;;;;;;11.48;9.85;;;;;;;10.48;73.28;99090.06;5014598;28;20187;-76
2022/06/02 02:12:38;;;;;;;12.80;9.20;;;;;;;10.44;72.89;99094.25;5000602;28;20033;-77
2022/06/02 02:15:24;;;;;;;14.70;9.88;;;;;;;10.34;73.21;99097.56;5009495;28;20477;-77
2022/06/02 02:18:09;;;;;;;10.38;9.38;;;;;;;10.17;73.67;99093.22;5006182;28;20021;-77
2022/06/02 02:21:00;;;;;;;11.30;9.23;;;;;;;10.05;74.21;99098.56;5021657;28;20030;-77
2022/06/02 02:24:00;;;;;;;14.32;9.57;;;;;;;10.13;74.06;99097.44;5007505;28;20389;-76
2022/06/02 02:26:57;;;;;;;10.25;8.43;;;;;;;10.07;73.53;99106.38;5001134;28;20393;-77
2022/06/02 02:30:00;;;;;;;10.15;9.07;;;;;;;10.28;73.02;99101.19;4989202;28;20042;-76
2022/06/02 02:32:48;;;;;;;10.43;8.88;;;;;;;10.07;73.14;99107.16;5003845;28;20435;-77
2022/06/02 02:35:23;;;;;;;11.10;9.82;;;;;;;9.44;73.62;99093.91;5003531;28;20025;-77
2022/06/02 02:37:58;;;;;;;10.35;9.25;;;;;;;9.98;73.84;99102.44;5019168;28;20563;-77
2022/06/02 02:40:30;;;;;;;14.95;10.27;;;;;;;10.08;72.97;99108.78;5025839;28;20056;-77
2022/06/02 02:43:05;;;;;;;11.00;8.82;;;;;;;9.85;73.35;99095.53;5008936;28;20033;-77
2022/06/02 02:46:16;;;;;;;11.43;9.55;;;;;;;10.08;72.87;99111.44;5004339;28;20038;-76
2022/06/02 02:49:00;;;;;;;12.73;10.68;;;;;;;9.77;73.01;99111.91;5003922;28;20111;-76
2022/06/02 02:51:59;;;;;;;15.23;10.40;;;;;;;9.71;74.22;99107.53;5018473;28;20025;-77
2022/06/02 02:54:47;;;;;;;10.90;9.80;;;;;;;9.55;74.04;99098.41;5007617;28;20031;-77
2022/06/02 02:57:41;;;;;;;10.80;9.70;;;;;;;9.57;73.61;99106.16;5004927;28;20102;-76
2022/06/02 03:00:19;;;;;;;13.63;10.50;;;;;;;9.70;73.61;99116.56;5006703;28;20037;-77
2022/06/02 03:02:56;;;;;;;10.82;9.70;;;;;;;9.30;74.48;99113.06;5007800;28;20041;-76
2022/06/02 03:05:33;;;;;;;11.70;10.50;;;;;;;8.60;76.23;99120.19;5005166;28;20041;-76
2022/06/02 03:08:07;;;;;;;14.18;11.95;;;;;;;8.90;76.45;99124.41;5006242;28;20038;-77
2022/06/02 03:10:38;;;;;;;12.68;10.88;;;;;;;9.26;74.09;99134.00;5007191;28;20673;-77
2022/06/02 03:13:32;;;;;;;13.32;11.07;;;;;;;8.32;78.36;99131.47;5003682;28;20021;-76
2022/06/02 03:16:06;;;;;;;13.23;10.68;;;;;;;9.49;74.40;99128.66;5006430;28;20125;-77
2022/06/02 03:18:46;;;;;;;12.13;10.63;;;;;;;9.47;73.79;99120.09;4987451;28;20196;-76
2022/06/02 03:21:22;;;;;;;12.45;10.40;;;;;;;9.68;73.82;99134.63;5006685;28;20480;-77
2022/06/02 03:24:11;;;;;;;11.40;10.25;;;;;;;9.64;73.59;99139.63;5005669;28;20543;-77
2022/06/02 03:26:52;;;;;;;12.77;10.18;;;;;;;9.41;73.72;99128.22;5003555;28;20189;-76
2022/06/02 03:29:49;;;;;;;13.50;9.40;;;;;;;9.60;73.33;99140.34;5010108;28;20025;-76
2022/06/02 03:32:48;;;;;;;14.02;10.85;;;;;;;9.42;73.75;99151.13;5019561;28;20064;-76
2022/06/02 03:35:40;;;;;;;11.45;9.85;;;;;;;9.58;73.27;99143.25;5005243;28;20061;-76
2022/06/02 03:38:29;;;;;;;13.88;10.52;;;;;;;9.39;74.12;99151.63;5001155;28;20515;-77
2022/06/02 03:41:18;;;;;;;13.30;10.43;;;;;;;9.38;73.76;99144.66;4985901;28;20124;-76
2022/06/02 03:43:46;;;;;;;11.98;9.60;;;;;;;9.33;74.31;99163.19;5001476;28;20026;-77
2022/06/02 03:46:23;;;;;;;11.10;10.00;;;;;;;9.39;74.27;99168.38;5005342;28;20048;-77
2022/06/02 03:49:01;;;;;;;13.20;10.88;;;;;;;9.32;74.39;99161.56;5005522;28;20030;-77
2022/06/02 03:51:32;;;;;;;11.50;10.02;;;;;;;9.32;74.44;99161.56;5003012;28;20030;-77
2022/06/02 03:54:15;;;;;;;14.68;11.10;;;;;;;9.46;74.27;99170.94;5007012;28;20049;-77
2022/06/02 03:57:03;;;;;;;12.10;10.75;;;;;;;9.35;74.60;99166.44;5006878;28;20034;-77
2022/06/02 04:00:10;;;;;;;11.55;10.38;;;;;;;9.28;74.70;99171.88;5005323;28;20105;-77
2022/06/02 04:02:44;;;;;;;12.32;10.20;;;;;;;9.17;75.17;99145.25;5023101;28;20111;-76
2022/06/02 04:05:32;;;;;;;12.85;10.85;;;;;;;9.39;74.95;99183.59;4997882;28;20125;-77
2022/06/02 04:08:08;;;;;;;11.50;10.05;;;;;;;9.43;74.84;99182.06;5009392;28;20026;-76
2022/06/02 04:10:54;;;;;;;11.77;10.50;;;;;;;9.47;74.96;99183.22;5008114;28;20160;-76
2022/06/02 04:13:37;;;;;;;13.75;11.07;;;;;;;9.78;74.78;99191.63;5009549;28;20037;-77
2022/06/02 04:16:22;;;;;;;14.52;11.30;;;;;;;9.48;75.04;99193.63;5022264;28;20032;-76
2022/06/02 04:18:57;;;;;;;14.30;11.20;;;;;;;9.70;74.55;99208.00;5002797;28;20041;-76
2022/06/02 04:21:42;;;;;;;13.55;10.90;;;;;;;9.75;74.53;99201.97;5005796;28;20037;-77
2022/06/02 04:24:19;;;;;;;13.10;11.10;;;;;;;9.74;74.98;99206.47;5006043;28;20030;-77
2022/06/02 04:27:01;;;;;;;14.88;12.05;;;;;;;10.08;73.58;99194.13;5010206;28;20029;-77
2022/06/02 04:29:54;;;;;;;12.70;11.40;;;;;;;10.10;73.51;99202.69;5011982;28;20031;-77
2022/06/02 04:32:27;;;;;;;16.50;11.82;;;;;;;10.27;73.75;99211.59;5010234;28;20029;-77
2022/06/02 04:35:12;;;;;;;13.35;11.93;;;;;;;10.22;74.36;99219.50;5004446;28;20076;-77
2022/06/02 04:37:51;;;;;;;18.27;12.77;;;;;;;9.96;77.29;99209.31;5010455;28;20037;-76
2022/06/02 04:40:35;;;;;;;13.93;12.43;;;;;;;10.43;74.41;99220.72;5020987;28;20125;-76
2022/06/02 04:43:19;;;;;;;14.18;12.00;;;;;;;10.73;73.58;99218.59;5007947;28;20033;-77
2022/06/02 04:45:48;;;;;;;17.73;12.55;;;;;;;10.53;76.53;99224.38;5000418;28;20657;-76
2022/06/02 04:48:24;;;;;;;13.18;11.18;;;;;;;10.99;72.71;99219.84;5005690;28;20034;-77
2022/06/02 04:51:00;;;;;;;13.10;11.77;;;;;;;11.07;73.37;99235.47;5011449;28;20053;-76
2022/06/02 04:53:32;;;;;;;;;;;;;;;10.61;80.18;99246.41;5017087;28;20430;-76
2022/06/02 04:56:13;;;;;;;15.25;12.00;;;;;;;10.99;74.24;99227.84;5014109;28;19956;-76
2022/06/02 04:59:26;;;;;;;15.35;12.32;;;;;;;11.22;73.86;99233.88;5014223;28;20046;-77
2022/06/02 05:02:19;;;;;;;13.65;11.73;;;;;;;11.31;73.70;99247.63;5007360;28;20444;-76
2022/06/02 05:04:54;;;;;;;14.27;11.85;;;;;;;11.37;74.18;99246.66;4999617;28;20033;-76
2022/06/02 05:07:58;;;;;;;17.05;14.02;;;;;;;10.92;77.64;99244.03;5021847;28;20030;-76
2022/06/02 05:10:34;;;;;;;16.63;14.70;;;;;;;10.26;79.76;99242.00;5001122;28;20029;-76
2022/06/02 05:13:10;;;;;;;18.73;15.15;;;;;;;10.16;82.10;99247.13;5010407;28;20113;-76
2022/06/02 05:15:38;;;;;;;16.60;13.63;;;;;;;9.24;84.05;99257.81;5006442;28;20476;-77
2022/06/02 05:18:48;;;;;;;19.20;14.75;;;;;;;9.30;83.02;99263.03;5009395;28;20501;-77
2022/06/02 05:21:33;;;;;;;17.85;14.93;;;;;;;9.19;84.03;99269.16;5007773;28;20083;-76
2022/06/02 05:24:30;;;;;;;17.25;14.55;;;;;;;9.15;83.71;99272.50;5006737;28;20030;-77
2022/06/02 05:27:18;;;;;;;19.38;15.93;;;;;;;8.86;84.36;99279.47;5005676;28;20025;-76
2022/06/02 05:29:58;;;;;;;18.25;14.93;;;;;;;9.02;83.58;99278.84;5011043;28;20045;-76
2022/06/02 05:32:42;;;;;;;17.77;14.82;;;;;;;8.84;83.63;99289.53;5011075;28;20036;-77
2022/06/02 05:35:33;;;;;;;16.05;14.02;;;;;;;9.05;83.72;99286.34;5000135;28;20103;-76
2022/06/02 05:38:39;;;;;;;15.57;12.98;;;;;;;9.60;82.09;99293.06;5010884;28;20034;-76
2022/06/02 05:41:18;;;;;;;12.70;11.38;;;;;;;10.48;78.07;99290.97;5005207;28;20046;-76
2022/06/02 05:44:15;;;;;;;16.42;13.15;;;;;;;10.31;78.89;99292.78;5009619;28;20018;-76
2022/06/02 05:47:09;;;;;;;19.52;13.30;;;;;;;10.15;80.10;99298.84;5008089;28;20041;-76
2022/06/02 05:49:34;;;;;;;15.07;13.30;;;;;;;10.16;80.83;99304.97;5007551;28;20057;-76
2022/06/02 05:52:30;;;;;;;17.13;12.63;;;;;;;10.57;78.83;99291.44;5010185;28;20099;-76
2022/06/02 05:55:34;;;;;;;16.40;11.18;;;;;;;10.80;77.02;99303.88;5007687;28;20330;-77
2022/06/02 05:58:21;;;;;;;13.85;12.30;;;;;;;10.61;78.60;99310.47;4987810;28;20088;-76
2022/06/02 06:01:19;;;;;;;15.88;11.25;;;;;;;10.40;80.54;99323.38;5009657;28;20030;-77
2022/06/02 06:04:17;;;;;;;19.50;12.48;;;;;;;10.93;78.19;99317.75;5005367;28;20030;-76
2022/06/02 06:07:00;;;;;;;14.95;11.55;;;;;;;11.50;74.95;99307.00;5007714;28;20453;-75
2022/06/02 06:09:36;;;;;;;14.30;12.80;;;;;;;10.86;78.80;99321.63;5007799;28;20034;-76
2022/06/02 06:12:23;;;;;;;14.95;13.48;;;;;;;10.92;78.38;99318.00;5014720;28;20026;-76
2022/06/02 06:15:01;;;;;;;13.00;11.57;;;;;;;11.02;78.15;99324.34;5006408;28;20030;-76
2022/06/02 06:17:45;;;;;;;15.40;13.30;;;;;;;11.04;77.90;99338.28;5002294;28;20025;-76
2022/06/02 06:20:33;;;;;;;16.70;13.55;;;;;;;10.72;79.92;99329.13;5006012;28;20030;-76
2022/06/02 06:23:26;;;;;;;15.65;14.00;;;;;;;11.06;77.89;99330.00;5004470;28;20061;-76
2022/06/02 06:26:04;;;;;;;14.38;12.50;;;;;;;10.95;77.70;99337.03;5002871;28;20029;-76
2022/06/02 06:28:40;;;;;;;19.30;15.15;;;;;;;10.41;79.24;99334.88;5007689;28;20445;-76
2022/06/02 06:31:26;;;;;;;;;;;;;;;10.55;80.22;99334.38;5010285;28;20022;-76
2022/06/02 06:34:06;;;;;;;16.60;14.77;;;;;;;10.33;80.83;99330.69;5005556;28;19913;-76
2022/06/02 06:36:59;;;;;;;15.43;13.82;;;;;;;11.06;77.98;99333.50;5008276;28;20027;-76
2022/06/02 06:39:34;;;;;;;13.02;11.65;;;;;;;11.58;75.77;99344.00;5007428;28;20034;-76
2022/06/02 06:42:17;;;;;;;18.40;14.77;;;;;;;11.42;77.23;99334.13;5010286;28;20389;-76
2022/06/02 06:44:56;;;;;;;20.38;14.77;;;;;;;11.79;76.13;99336.13;4999218;28;20034;-76
2022/06/02 06:47:29;;;;;;;14.98;13.38;;;;;;;11.41;76.87;99341.34;5002877;28;20029;-76
2022/06/02 06:50:12;;;;;;;18.17;14.63;;;;;;;10.93;78.14;99333.78;5004796;28;20030;-76
2022/06/02 06:52:44;;;;;;;21.90;15.98;;;;;;;10.53;79.76;99343.66;5004473;28;20378;-76
2022/06/02 06:55:46;;;;;;;18.13;15.77;;;;;;;10.74;79.94;99331.53;5019702;28;20087;-76
2022/06/02 06:58:41;;;;;;;20.90;16.58;;;;;;;11.29;79.30;99336.03;5007425;28;20397;-76
2022/06/02 07:01:25;;;;;;;16.05;12.48;;;;;;;11.79;75.80;99338.78;5022407;28;20125;-76
2022/06/02 07:04:18;;;;;;;19.45;15.32;;;;;;;11.82;75.63;99337.47;5008264;28;20026;-76
2022/06/02 07:06:56;;;;;;;22.05;16.38;;;;;;;10.79;78.39;99340.44;5001166;28;21378;-76
2022/06/02 07:09:37;;;;;;;16.27;14.40;;;;;;;11.80;76.32;99351.09;5002263;28;20040;-76
2022/06/02 07:15:28;;;;;;;14.43;12.93;;;;;;;12.59;72.76;99355.16;5004381;28;21733;-76
2022/06/02 07:18:07;;;;;;;17.33;13.45;;;;;;;12.61;72.99;99330.81;4999455;28;20030;-76
2022/06/02 07:20:48;;;;;;;18.45;16.10;;;;;;;11.89;76.27;99356.84;5007246;28;20047;-76
2022/06/02 07:23:27;;;;;;;19.95;16.25;;;;;;;11.75;76.77;99347.53;5006317;28;20025;-76
2022/06/02 07:26:19;;;;;;;21.02;16.67;;;;;;;11.69;79.09;99354.66;5008962;28;20068;-76
2022/06/02 07:29:03;;;;;;;19.23;17.15;;;;;;;12.16;77.84;99343.59;5003872;28;20068;-76
2022/06/02 07:31:48;;;;;;;16.95;13.57;;;;;;;12.71;73.86;99347.81;5007581;28;20022;-76
2022/06/02 07:34:33;;;;;;;21.10;17.70;;;;;;;12.59;77.33;99333.75;5006965;28;20156;-76
2022/06/02 07:37:42;;;;;;;17.52;15.43;;;;;;;12.55;75.41;99335.31;5021993;28;20046;-76
2022/06/02 07:40:17;;;;;;;17.70;15.25;;;;;;;12.82;75.58;99334.56;5000289;28;20034;-76
2022/06/02 07:43:04;;;;;;;17.35;15.45;;;;;;;12.87;73.41;99337.25;5008045;28;20072;-76
2022/06/02 07:45:41;;;;;;;16.63;13.70;;;;;;;12.96;73.95;99339.25;5006021;28;20034;-76
2022/06/02 07:48:25;;;;;;;15.55;13.18;;;;;;;13.41;72.48;99350.47;5001069;28;20026;-76
2022/06/02 07:51:04;;;;;;;13.38;11.98;;;;;;;13.59;71.25;99353.81;5004079;28;20113;-76
2022/06/02 07:53:48;;;;;;;17.17;14.52;;;;;;;12.76;73.85;99352.41;5007434;28;20021;-76
2022/06/02 07:56:43;;;;;;;17.77;15.88;;;;;;;13.04;73.75;99344.16;5006095;28;20022;-76
2022/06/02 07:59:21;;;;;;;17.05;14.38;;;;;;;12.59;73.23;99347.13;4995242;28;20038;-76
2022/06/02 08:02:24;;;;;;;17.50;15.65;;;;;;;12.73;75.71;99342.22;5011182;28;20048;-76
2022/06/02 08:05:06;;;;;;;13.95;12.07;;;;;;;13.58;71.99;99347.69;5002646;28;20173;-76
2022/06/02 08:07:49;;;;;;;12.27;11.02;;;;;;;13.22;72.96;99340.34;5012176;28;20061;-76
2022/06/02 08:10:38;;;;;;;14.45;12.00;;;;;;;13.76;71.44;99357.22;5011139;28;20389;-76
2022/06/02 08:13:57;;;;;;;14.05;11.38;;;;;;;13.99;70.32;99352.28;5006579;28;20026;-76
2022/06/02 08:16:32;;;;;;;12.73;9.98;;;;;;;13.85;70.22;99347.59;5012742;28;20548;-76
2022/06/02 08:19:13;;;;;;;14.00;11.23;;;;;;;13.77;69.90;99346.22;5011881;28;20505;-76
2022/06/02 08:21:48;;;;;;;12.95;10.73;;;;;;;14.05;69.74;99359.31;5015974;28;20103;-76
2022/06/02 08:24:51;;;;;;;13.45;10.77;;;;;;;13.60;70.04;99360.81;5004097;28;20420;-76
2022/06/02 08:27:43;;;;;;;13.40;12.00;;;;;;;13.54;70.14;99362.66;5003059;28;20040;-76
2022/06/02 08:30:18;;;;;;;14.82;12.27;;;;;;;13.39;69.88;99359.81;5007606;28;20021;-76
2022/06/02 08:33:06;;;;;;;11.15;9.35;;;;;;;14.03;69.71;99352.56;5000036;28;20030;-76
2022/06/02 08:35:41;;;;;;;12.55;9.70;;;;;;;14.10;69.67;99363.91;5004125;28;20260;-76
2022/06/02 08:38:22;;;;;;;10.10;8.77;;;;;;;14.33;68.65;99382.31;5006564;28;20022;-76
2022/06/02 08:41:30;;;;;;;12.20;8.75;;;;;;;14.30;68.84;99374.00;5006419;28;20037;-76
2022/06/02 08:44:37;;;;;;;8.68;7.72;;;;;;;14.41;69.76;99370.28;5005313;28;20030;-76
2022/06/02 08:47:20;;;;;;;9.27;8.45;;;;;;;14.52;67.08;99375.47;5002205;28;20044;-76
2022/06/02 08:49:57;;;;;;;8.63;7.72;;;;;;;14.64;67.20;99380.63;5019984;28;20057;-76
2022/06/02 08:52:50;;;;;;;10.20;7.55;;;;;;;14.67;66.45;99375.53;5001421;28;20029;-76
2022/06/02 08:55:50;;;;;;;8.48;7.15;;;;;;;14.43;65.69;99387.78;5007933;28;20498;-76
2022/06/02 08:58:37;;;;;;;8.27;6.65;;;;;;;14.26;65.65;99379.84;5005529;28;20026;-76
2022/06/02 09:01:27;;;;;;;8.82;7.47;;;;;;;14.23;66.19;99390.28;5002869;28;20511;-76
2022/06/02 09:04:27;;;;;;;8.52;7.57;;;;;;;14.54;66.14;99389.44;5004023;28;20041;-76
2022/06/02 09:07:29;;;;;;;8.43;7.63;;;;;;;14.64;66.23;99392.19;5006676;28;20068;-76
2022/06/02 09:10:17;;;;;;;7.45;6.72;;;;;;;14.77;65.78;99389.00;5004141;28;20080;-76
2022/06/02 09:12:58;;;;;;;8.27;6.10;;;;;;;14.61;64.59;99376.56;5006363;28;20053;-76
2022/06/02 09:15:59;;;;;;;8.95;6.95;;;;;;;14.18;63.59;99398.31;5024013;28;20025;-76
2022/06/02 09:18:49;;;;;;;6.03;5.53;;;;;;;14.90;64.22;99398.47;5010911;28;20034;-76
2022/06/02 09:21:26;;;;;;;6.28;5.28;;;;;;;14.87;64.83;99391.72;5002344;28;20046;-76
2022/06/02 09:24:21;;;;;;;6.10;5.47;;;;;;;14.78;65.57;99390.66;5008859;28;20051;-76
2022/06/02 09:27:25;;;;;;;5.22;4.72;;;;;;;14.75;65.79;99388.47;5009285;28;20026;-76
2022/06/02 09:30:06;;;;;;;7.38;5.30;;;;;;;14.82;65.32;99378.28;5010676;28;20048;-76
2022/06/02 09:32:53;;;;;;;8.13;5.25;;;;;;;14.91;64.77;99394.72;5009744;28;20037;-76
2022/06/02 09:35:21;;;;;;;6.15;5.35;;;;;;;14.68;64.79;99397.81;5015249;28;20036;-76
2022/06/02 09:38:06;;;;;;;5.18;4.72;;;;;;;14.85;63.69;99388.50;5008746;28;20033;-76
2022/06/02 09:40:47;;;;;;;6.93;5.97;;;;;;;14.76;63.17;99387.41;5008412;28;20107;-76
2022/06/02 09:43:47;;;;;;;7.68;4.80;;;;;;;15.09;64.16;99394.25;5008818;28;20041;-76
2022/06/02 09:46:34;;;;;;;6.15;4.75;;;;;;;15.03;64.72;99398.78;4999826;28;20110;-76
2022/06/02 09:49:18;;;;;;;4.57;4.18;;;;;;;14.93;63.83;99396.09;5008499;28;20041;-75
2022/06/02 09:51:53;;;;;;;4.88;4.38;;;;;;;14.80;65.27;99396.56;5008578;28;20033;-76
2022/06/02 09:55:04;;;;;;;5.65;5.07;;;;;;;14.72;64.10;99388.97;5008230;28;20397;-76
2022/06/02 09:58:11;;;;;;;5.82;5.25;;;;;;;14.94;63.49;99399.56;5003682;28;20045;-76
2022/06/02 10:00:39;;;;;;;4.65;4.25;;;;;;;15.19;62.17;99393.47;5009905;28;20131;-76
2022/06/02 10:03:42;;;;;;;3.80;3.47;;;;;;;15.17;63.15;99401.00;5008448;28;20120;-76
2022/06/02 10:06:45;;;;;;;4.25;3.63;;;;;;;15.28;61.35;99392.69;5007945;28;20026;-75
2022/06/02 10:09:40;;;;;;;3.65;3.35;;;;;;;15.23;60.86;99389.97;5000449;28;20038;-76
2022/06/02 10:15:40;;;;;;;3.65;3.35;;;;;;;15.65;61.09;99393.31;5004810;28;20146;-76
2022/06/02 10:18:27;;;;;;;5.45;4.13;;;;;;;14.90;57.96;99383.16;5008291;28;20068;-76
2022/06/02 10:21:18;;;;;;;3.65;3.05;;;;;;;15.63;59.73;99386.59;5013485;28;20456;-76
2022/06/02 10:24:08;;;;;;;2.97;2.75;;;;;;;15.89;59.93;99380.16;5005093;28;20034;-76
2022/06/02 10:26:33;;;;;;;3.90;3.05;;;;;;;15.63;58.74;99389.28;5005819;28;20026;-75
2022/06/02 10:29:48;;;;;;;3.50;2.77;;;;;;;15.53;57.68;99391.97;5019619;28;20440;-76
2022/06/02 10:32:54;;;;;;;3.33;3.05;;;;;;;15.79;58.36;99382.84;5004194;28;20279;-76
2022/06/02 10:35:37;;;;;;;4.90;2.53;;;;;;;15.70;58.29;99379.06;5000857;28;20080;-76
2022/06/02 10:38:33;;;;;;;3.05;2.80;;;;;;;15.82;57.72;99378.78;4999975;28;20471;-76
2022/06/02 10:41:10;;;;;;;2.38;1.85;;;;;;;16.15;57.04;99381.75;5004902;28;20033;-76
2022/06/02 10:44:10;;;;;;;2.80;2.60;;;;;;;16.53;55.99;99368.75;5013030;28;20091;-76
2022/06/02 10:46:58;;;;;;;2.53;2.33;;;;;;;16.67;54.97;99375.97;5006980;28;20103;-76
2022/06/02 10:49:30;;;;;;;3.42;3.13;;;;;;;17.18;52.89;99369.28;5006164;28;20022;-76
2022/06/02 10:52:30;;;;;;;3.00;2.33;;;;;;;17.62;53.47;99380.09;5007181;28;20045;-76
2022/06/02 10:55:20;;;;;;;2.83;2.25;;;;;;;17.49;52.00;99377.19;5004848;28;20026;-76
2022/06/02 10:58:10;;;;;;;2.70;2.08;;;;;;;17.65;54.90;99384.94;4998018;28;20502;-76
2022/06/02 11:00:56;;;;;;;2.78;2.10;;;;;;;17.65;54.82;99390.31;5018779;28;20061;-76
2022/06/02 11:03:41;;;;;;;2.35;2.20;;;;;;;18.08;53.34;99377.84;5001197;28;20470;-76
2022/06/02 11:06:28;;;;;;;3.08;2.38;;;;;;;17.76;52.83;99375.66;5002765;28;20036;-76
2022/06/02 11:09:43;;;;;;;4.03;2.67;;;;;;;18.53;51.89;99380.09;5006001;28;20025;-76
2022/06/02 11:12:17;;;;;;;3.63;2.40;;;;;;;18.34;52.90;99376.50;5004952;28;20034;-76
2022/06/02 11:15:14;;;;;;;3.13;2.08;;;;;;;18.52;52.89;99383.88;5006774;28;20046;-76
2022/06/02 11:18:07;;;;;;;2.70;2.20;;;;;;;18.80;50.13;99379.53;4999645;28;20025;-76
2022/06/02 11:21:12;;;;;;;2.35;2.15;;;;;;;18.95;51.32;99370.41;5002987;28;20065;-76
2022/06/02 11:24:08;;;;;;;2.20;1.90;;;;;;;18.76;51.46;99381.22;5002088;28;20026;-76
2022/06/02 11:27:05;;;;;;;1.80;1.70;;;;;;;18.43;53.25;99377.50;5004711;28;20060;-76
2022/06/02 11:30:04;;;;;;;1.75;1.65;;;;;;;18.50;52.05;99369.06;5008543;28;20069;-76
2022/06/02 11:32:45;;;;;;;2.47;2.28;;;;;;;18.28;51.50;99369.50;5004978;28;20385;-76
2022/06/02 11:35:38;;;;;;;2.30;2.08;;;;;;;18.40;52.64;99366.44;5004007;28;20066;-76
2022/06/02 11:38:31;;;;;;;2.33;2.15;;;;;;;18.28;53.43;99369.50;4996300;28;20036;-76
2022/06/02 11:41:25;;;;;;;2.15;1.90;;;;;;;18.18;52.22;99366.13;5001392;28;20053;-76
2022/06/02 11:44:29;;;;;;;2.10;1.90;;;;;;;18.38;52.18;99364.03;5000838;28;20036;-75
2022/06/02 11:47:21;;;;;;;2.20;2.10;;;;;;;18.78;51.80;99360.09;5002520;28;20505;-76
2022/06/02 11:50:01;;;;;;;1.70;1.60;;;;;;;18.94;51.37;99361.50;5020325;28;20040;-76
2022/06/02 11:52:58;;;;;;;1.65;1.55;;;;;;;18.81;51.35;99361.38;5006796;28;20029;-76
2022/06/02 11:55:34;;;;;;;5.78;2.45;;;;;;;18.89;49.56;99355.34;5004340;28;20036;-76
2022/06/02 11:58:19;;;;;;;2.10;1.98;;;;;;;18.52;49.83;99353.38;5005362;28;20045;-76
2022/06/02 12:01:13;;;;;;;3.55;1.70;;;;;;;18.39;51.71;99356.72;5001275;28;20065;-76
2022/06/02 12:03:56;;;;;;;2.47;2.28;;;;;;;18.40;50.72;99358.31;5001752;28;20032;-76
2022/06/02 12:06:43;;;;;;;2.90;2.70;;;;;;;17.69;50.82;99342.78;5003926;28;20034;-76
2022/06/02 12:09:17;;;;;;;2.10;1.95;;;;;;;18.18;53.00;99355.31;5004198;28;20028;-76
2022/06/02 12:11:54;;;;;;;2.25;1.60;;;;;;;18.90;51.90;99346.94;5011975;28;20033;-76
2022/06/02 12:14:38;;;;;;;1.98;1.60;;;;;;;19.25;49.79;99338.34;5013907;28;20033;-76
2022/06/02 12:17:15;;;;;;;2.58;2.42;;;;;;;19.40;49.04;99340.84;5000569;28;20034;-76
2022/06/02 12:20:00;;;;;;;1.77;1.65;;;;;;;20.04;48.88;99331.13;5003978;28;20041;-76
2022/06/02 12:22:44;;;;;;;2.30;2.10;;;;;;;20.58;45.51;99333.94;5015968;28;20033;-76
2022/06/02 12:25:34;;;;;;;2.65;1.80;;;;;;;21.10;45.61;99329.09;5006202;28;20030;-76
2022/06/02 12:28:28;;;;;;;5.03;1.92;;;;;;;20.93;46.92;99333.19;5002800;28;20041;-76
2022/06/02 12:31:18;;;;;;;1.50;1.40;;;;;;;21.84;45.60;99327.63;5004170;28;20072;-76
2022/06/02 12:34:10;;;;;;;2.33;2.15;;;;;;;21.90;44.45;99335.34;5004421;28;20109;-76
2022/06/02 12:37:13;;;;;;;2.45;1.00;;;;;;;22.03;45.71;99325.50;5003914;28;21005;-76
2022/06/02 12:40:02;;;;;;;3.40;2.03;;;;;;;21.13;47.03;99331.97;5003140;28;20053;-75
2022/06/02 12:42:48;;;;;;;2.08;1.73;;;;;;;21.40;45.99;99334.63;5007029;28;20474;-76
2022/06/02 12:45:20;;;;;;;3.35;3.05;;;;;;;20.69;44.64;99340.75;5005026;28;20030;-76
2022/06/02 12:48:10;;;;;;;1.20;1.10;;;;;;;20.98;47.87;99339.63;5005773;28;20045;-75
2022/06/02 12:51:14;;;;;;;4.00;1.65;;;;;;;20.62;46.80;99345.00;5010187;28;20026;-76
2022/06/02 12:54:04;;;;;;;2.00;1.90;;;;;;;20.54;47.12;99349.19;5007007;28;20500;-76
2022/06/02 12:56:53;;;;;;;3.33;1.38;;;;;;;20.63;47.30;99336.56;5006813;28;20033;-76
2022/06/02 12:59:24;;;;;;;1.50;1.40;;;;;;;20.56;48.05;99340.75;5012791;28;20061;-76
2022/06/02 13:02:03;;;;;;;2.33;1.40;;;;;;;20.49;47.66;99341.16;5006428;28;20026;-76
2022/06/02 13:05:02;;;;;;;1.85;1.75;;;;;;;20.81;47.50;99338.34;5004814;28;20157;-76
2022/06/02 13:07:52;;;;;;;2.35;1.95;;;;;;;21.11;46.99;99336.09;5006869;28;20025;-75